sensor_id;sensor_type;location;lat;lon;timestamp;pressure;altitude;pressure_sealevel;temperature;humidity
78337;BME280;67610;51.588;7.002;2024-03-23T00:54:23;100266.81;;;9.70;74.46
78337;BME280;67610;51.588;7.002;2024-03-23T00:56:48;100264.47;;;9.67;74.07
78337;BME280;67610;51.588;7.002;2024-03-23T00:59:13;100266.31;;;9.66;74.01
78337;BME280;67610;51.588;7.002;2024-03-23T01:01:39;100263.81;;;9.65;74.33
78337;BME280;67610;51.588;7.002;2024-03-23T01:04:04;100257.72;;;9.64;74.38
78337;BME280;67610;51.588;7.002;2024-03-23T01:06:30;100271.31;;;9.60;74.09
78337;BME280;67610;51.588;7.002;2024-03-23T01:08:55;100263.69;;;9.49;73.84
78337;BME280;67610;51.588;7.002;2024-03-23T01:11:20;100263.88;;;9.47;73.63
78337;BME280;67610;51.588;7.002;2024-03-23T01:13:46;100272.56;;;9.48;73.89
78337;BME280;67610;51.588;7.002;2024-03-23T01:16:11;100266.31;;;9.49;73.72
78337;BME280;67610;51.588;7.002;2024-03-23T01:18:36;100258.63;;;9.47;73.24
78337;BME280;67610;51.588;7.002;2024-03-23T01:21:02;100261.53;;;9.44;73.06
78337;BME280;67610;51.588;7.002;2024-03-23T01:23:27;100247.75;;;9.42;72.74
78337;BME280;67610;51.588;7.002;2024-03-23T01:25:54;100246.78;;;9.26;72.48
78337;BME280;67610;51.588;7.002;2024-03-23T01:28:22;100251.38;;;9.24;73.44
78337;BME280;67610;51.588;7.002;2024-03-23T01:30:49;100230.38;;;9.24;73.52
78337;BME280;67610;51.588;7.002;2024-03-23T01:33:17;100216.75;;;9.20;73.61
78337;BME280;67610;51.588;7.002;2024-03-23T01:35:42;100205.44;;;9.20;73.16
78337;BME280;67610;51.588;7.002;2024-03-23T01:38:08;100208.66;;;9.13;73.50
78337;BME280;67610;51.588;7.002;2024-03-23T01:40:33;100194.16;;;9.01;73.72
78337;BME280;67610;51.588;7.002;2024-03-23T01:43:03;100193.03;;;9.04;74.03
78337;BME280;67610;51.588;7.002;2024-03-23T01:45:30;100195.88;;;9.10;74.20
78337;BME280;67610;51.588;7.002;2024-03-23T01:47:56;100196.38;;;9.14;73.71
78337;BME280;67610;51.588;7.002;2024-03-23T01:50:21;100199.66;;;9.16;73.95
78337;BME280;67610;51.588;7.002;2024-03-23T01:52:48;100190.81;;;9.17;74.03
78337;BME280;67610;51.588;7.002;2024-03-23T01:55:14;100191.66;;;9.18;73.02
78337;BME280;67610;51.588;7.002;2024-03-23T01:57:39;100184.38;;;9.11;73.22
78337;BME280;67610;51.588;7.002;2024-03-23T02:00:05;100193.53;;;9.07;73.38
78337;BME280;67610;51.588;7.002;2024-03-23T02:02:31;100201.56;;;9.06;73.71
78337;BME280;67610;51.588;7.002;2024-03-23T02:04:57;100205.81;;;9.07;73.55
78337;BME280;67610;51.588;7.002;2024-03-23T02:07:22;100195.50;;;9.05;73.46
78337;BME280;67610;51.588;7.002;2024-03-23T02:09:49;100201.19;;;9.01;73.86
78337;BME280;67610;51.588;7.002;2024-03-23T02:12:15;100190.53;;;9.02;74.36
78337;BME280;67610;51.588;7.002;2024-03-23T02:14:41;100182.38;;;9.05;74.19
78337;BME280;67610;51.588;7.002;2024-03-23T02:17:06;100182.22;;;9.07;74.46
78337;BME280;67610;51.588;7.002;2024-03-23T02:19:31;100187.31;;;9.08;74.52
78337;BME280;67610;51.588;7.002;2024-03-23T02:21:57;100188.66;;;9.12;74.53
78337;BME280;67610;51.588;7.002;2024-03-23T02:24:22;100192.09;;;9.13;74.31
78337;BME280;67610;51.588;7.002;2024-03-23T02:26:48;100203.28;;;9.15;74.32
78337;BME280;67610;51.588;7.002;2024-03-23T02:29:15;100196.38;;;9.14;74.68
78337;BME280;67610;51.588;7.002;2024-03-23T02:31:40;100202.16;;;9.18;74.52
78337;BME280;67610;51.588;7.002;2024-03-23T02:34:05;100197.03;;;9.16;73.57
78337;BME280;67610;51.588;7.002;2024-03-23T02:36:31;100199.16;;;9.12;73.55
78337;BME280;67610;51.588;7.002;2024-03-23T02:38:56;100186.13;;;9.03;73.85
78337;BME280;67610;51.588;7.002;2024-03-23T02:41:21;100181.16;;;9.00;74.26
78337;BME280;67610;51.588;7.002;2024-03-23T02:43:49;100181.03;;;9.01;74.39
78337;BME280;67610;51.588;7.002;2024-03-23T02:46:15;100190.88;;;8.99;74.13
78337;BME280;67610;51.588;7.002;2024-03-23T02:48:41;100189.56;;;9.03;74.09
78337;BME280;67610;51.588;7.002;2024-03-23T02:51:06;100179.53;;;8.99;74.04
78337;BME280;67610;51.588;7.002;2024-03-23T02:53:32;100169.88;;;8.99;73.96
78337;BME280;67610;51.588;7.002;2024-03-23T02:56:00;100171.50;;;9.00;73.96
78337;BME280;67610;51.588;7.002;2024-03-23T02:58:25;100170.84;;;8.98;73.69
78337;BME280;67610;51.588;7.002;2024-03-23T03:00:53;100184.41;;;8.94;73.37
78337;BME280;67610;51.588;7.002;2024-03-23T03:03:21;100181.41;;;8.89;73.74
78337;BME280;67610;51.588;7.002;2024-03-23T03:05:46;100183.53;;;8.85;73.85
78337;BME280;67610;51.588;7.002;2024-03-23T03:08:11;100188.91;;;8.84;73.52
78337;BME280;67610;51.588;7.002;2024-03-23T03:10:37;100188.41;;;8.80;73.48
78337;BME280;67610;51.588;7.002;2024-03-23T03:13:02;100173.88;;;8.68;73.63
78337;BME280;67610;51.588;7.002;2024-03-23T03:15:28;100174.78;;;8.59;73.99
78337;BME280;67610;51.588;7.002;2024-03-23T03:17:53;100171.25;;;8.51;74.51
78337;BME280;67610;51.588;7.002;2024-03-23T03:20:19;100172.06;;;8.51;74.43
78337;BME280;67610;51.588;7.002;2024-03-23T03:22:44;100175.69;;;8.50;74.30
78337;BME280;67610;51.588;7.002;2024-03-23T03:25:10;100175.00;;;8.48;74.57
78337;BME280;67610;51.588;7.002;2024-03-23T03:27:35;100172.84;;;8.43;74.67
78337;BME280;67610;51.588;7.002;2024-03-23T03:30:01;100186.44;;;8.47;74.87
78337;BME280;67610;51.588;7.002;2024-03-23T03:32:29;100186.16;;;8.50;74.75
78337;BME280;67610;51.588;7.002;2024-03-23T03:34:55;100182.25;;;8.54;74.98
78337;BME280;67610;51.588;7.002;2024-03-23T03:37:24;100165.34;;;8.49;75.28
78337;BME280;67610;51.588;7.002;2024-03-23T03:39:49;100175.38;;;8.53;75.47
78337;BME280;67610;51.588;7.002;2024-03-23T03:42:14;100162.94;;;8.55;74.91
78337;BME280;67610;51.588;7.002;2024-03-23T03:44:40;100165.03;;;8.52;74.51
78337;BME280;67610;51.588;7.002;2024-03-23T03:47:06;100156.00;;;8.46;74.82
78337;BME280;67610;51.588;7.002;2024-03-23T03:49:31;100146.31;;;8.47;74.86
78337;BME280;67610;51.588;7.002;2024-03-23T03:51:58;100145.34;;;8.48;74.72
78337;BME280;67610;51.588;7.002;2024-03-23T03:54:23;100153.38;;;8.46;75.05
78337;BME280;67610;51.588;7.002;2024-03-23T03:56:49;100162.19;;;8.45;74.86
78337;BME280;67610;51.588;7.002;2024-03-23T03:59:17;100165.09;;;8.42;75.03
78337;BME280;67610;51.588;7.002;2024-03-23T04:01:42;100171.34;;;8.41;75.06
78337;BME280;67610;51.588;7.002;2024-03-23T04:04:08;100170.50;;;8.40;74.99
78337;BME280;67610;51.588;7.002;2024-03-23T04:06:33;100166.22;;;8.39;75.04
78337;BME280;67610;51.588;7.002;2024-03-23T04:08:59;100151.25;;;8.32;74.97
78337;BME280;67610;51.588;7.002;2024-03-23T04:11:24;100147.16;;;8.29;75.05
78337;BME280;67610;51.588;7.002;2024-03-23T04:13:50;100149.59;;;8.31;75.33
78337;BME280;67610;51.588;7.002;2024-03-23T04:16:34;100148.47;;;8.33;75.21
78337;BME280;67610;51.588;7.002;2024-03-23T04:18:59;100149.31;;;8.34;75.09
78337;BME280;67610;51.588;7.002;2024-03-23T04:21:25;100158.53;;;8.38;74.89
78337;BME280;67610;51.588;7.002;2024-03-23T04:23:50;100151.66;;;8.37;75.00
78337;BME280;67610;51.588;7.002;2024-03-23T04:26:16;100159.34;;;8.38;74.82
78337;BME280;67610;51.588;7.002;2024-03-23T04:28:41;100153.28;;;8.38;74.85
78337;BME280;67610;51.588;7.002;2024-03-23T04:31:07;100150.94;;;8.35;75.01
78337;BME280;67610;51.588;7.002;2024-03-23T04:33:32;100149.03;;;8.37;74.68
78337;BME280;67610;51.588;7.002;2024-03-23T04:35:57;100154.56;;;8.34;74.61
78337;BME280;67610;51.588;7.002;2024-03-23T04:38:23;100145.19;;;8.31;74.57
78337;BME280;67610;51.588;7.002;2024-03-23T04:40:58;100141.63;;;8.32;74.30
78337;BME280;67610;51.588;7.002;2024-03-23T04:43:25;100146.03;;;8.32;74.13
78337;BME280;67610;51.588;7.002;2024-03-23T04:45:51;100148.53;;;8.24;74.40
78337;BME280;67610;51.588;7.002;2024-03-23T04:48:16;100144.28;;;8.23;74.66
78337;BME280;67610;51.588;7.002;2024-03-23T04:50:41;100142.75;;;8.20;74.54
78337;BME280;67610;51.588;7.002;2024-03-23T04:53:07;100142.75;;;8.20;74.81
78337;BME280;67610;51.588;7.002;2024-03-23T04:55:33;100145.38;;;8.20;74.93
78337;BME280;67610;51.588;7.002;2024-03-23T04:57:58;100143.50;;;8.13;75.08
78337;BME280;67610;51.588;7.002;2024-03-23T05:00:23;100139.22;;;8.12;75.27
78337;BME280;67610;51.588;7.002;2024-03-23T05:02:50;100148.06;;;8.11;75.54
78337;BME280;67610;51.588;7.002;2024-03-23T05:05:15;100150.97;;;8.08;75.57
78337;BME280;67610;51.588;7.002;2024-03-23T05:07:41;100144.63;;;8.10;75.36
78337;BME280;67610;51.588;7.002;2024-03-23T05:10:08;100144.31;;;8.13;75.95
78337;BME280;67610;51.588;7.002;2024-03-23T05:12:39;100144.28;;;7.96;76.74
78337;BME280;67610;51.588;7.002;2024-03-23T05:15:05;100138.75;;;7.99;76.57
78337;BME280;67610;51.588;7.002;2024-03-23T05:17:34;100141.16;;;8.10;76.54
78337;BME280;67610;51.588;7.002;2024-03-23T05:20:00;100142.97;;;8.09;76.45
78337;BME280;67610;51.588;7.002;2024-03-23T05:22:25;100145.28;;;8.12;76.47
78337;BME280;67610;51.588;7.002;2024-03-23T05:24:52;100159.38;;;8.11;76.58
78337;BME280;67610;51.588;7.002;2024-03-23T05:27:18;100152.47;;;8.10;76.93
78337;BME280;67610;51.588;7.002;2024-03-23T05:29:43;100157.09;;;8.16;76.74
78337;BME280;67610;51.588;7.002;2024-03-23T05:32:08;100157.38;;;8.23;76.39
78337;BME280;67610;51.588;7.002;2024-03-23T05:34:34;100156.53;;;8.22;76.54
78337;BME280;67610;51.588;7.002;2024-03-23T05:36:59;100155.31;;;8.17;76.96
78337;BME280;67610;51.588;7.002;2024-03-23T05:39:25;100157.94;;;8.17;77.00
78337;BME280;67610;51.588;7.002;2024-03-23T05:41:50;100154.34;;;8.18;77.11
78337;BME280;67610;51.588;7.002;2024-03-23T05:44:16;100158.16;;;8.23;76.91
78337;BME280;67610;51.588;7.002;2024-03-23T05:46:41;100159.25;;;8.30;76.59
78337;BME280;67610;51.588;7.002;2024-03-23T05:49:07;100159.31;;;8.21;77.19
78337;BME280;67610;51.588;7.002;2024-03-23T05:51:33;100150.75;;;8.19;77.23
78337;BME280;67610;51.588;7.002;2024-03-23T05:53:58;100150.91;;;8.17;77.10
78337;BME280;67610;51.588;7.002;2024-03-23T05:56:24;100154.06;;;8.21;77.40
78337;BME280;67610;51.588;7.002;2024-03-23T05:58:51;100156.50;;;8.32;77.30
78337;BME280;67610;51.588;7.002;2024-03-23T06:01:18;100168.63;;;8.33;76.94
78337;BME280;67610;51.588;7.002;2024-03-23T06:03:43;100166.19;;;8.22;77.42
78337;BME280;67610;51.588;7.002;2024-03-23T06:06:09;100165.41;;;8.12;77.98
78337;BME280;67610;51.588;7.002;2024-03-23T06:08:37;100156.81;;;8.19;77.26
78337;BME280;67610;51.588;7.002;2024-03-23T06:11:04;100165.22;;;8.23;77.33
78337;BME280;67610;51.588;7.002;2024-03-23T06:13:31;100167.56;;;8.26;76.98
78337;BME280;67610;51.588;7.002;2024-03-23T06:15:57;100160.13;;;8.21;76.83
78337;BME280;67610;51.588;7.002;2024-03-23T06:18:23;100162.66;;;8.13;77.47
78337;BME280;67610;51.588;7.002;2024-03-23T06:20:49;100159.38;;;8.11;77.54
78337;BME280;67610;51.588;7.002;2024-03-23T06:23:14;100170.97;;;8.09;77.07
78337;BME280;67610;51.588;7.002;2024-03-23T06:25:41;100172.47;;;8.11;77.16
78337;BME280;67610;51.588;7.002;2024-03-23T06:28:06;100175.22;;;8.10;77.52
78337;BME280;67610;51.588;7.002;2024-03-23T06:30:31;100175.81;;;8.31;77.47
78337;BME280;67610;51.588;7.002;2024-03-23T06:32:57;100174.84;;;8.32;76.73
78337;BME280;67610;51.588;7.002;2024-03-23T06:35:23;100172.69;;;8.45;76.50
78337;BME280;67610;51.588;7.002;2024-03-23T06:37:48;100179.84;;;8.61;76.08
78337;BME280;67610;51.588;7.002;2024-03-23T06:40:13;100175.88;;;8.74;75.65
78337;BME280;67610;51.588;7.002;2024-03-23T06:42:39;100183.22;;;8.88;75.23
78337;BME280;67610;51.588;7.002;2024-03-23T06:45:05;100182.66;;;9.02;74.93
78337;BME280;67610;51.588;7.002;2024-03-23T06:47:31;100178.53;;;9.18;74.46
78337;BME280;67610;51.588;7.002;2024-03-23T06:49:56;100174.88;;;9.36;74.16
78337;BME280;67610;51.588;7.002;2024-03-23T06:52:22;100184.56;;;9.69;73.50
78337;BME280;67610;51.588;7.002;2024-03-23T06:54:47;100182.91;;;10.02;71.41
78337;BME280;67610;51.588;7.002;2024-03-23T06:57:13;100175.53;;;10.06;70.63
78337;BME280;67610;51.588;7.002;2024-03-23T06:59:38;100169.53;;;10.29;70.55
78337;BME280;67610;51.588;7.002;2024-03-23T07:02:06;100175.34;;;10.57;71.17
78337;BME280;67610;51.588;7.002;2024-03-23T07:04:34;100172.91;;;10.96;68.69
78337;BME280;67610;51.588;7.002;2024-03-23T07:06:59;100174.53;;;11.13;67.81
78337;BME280;67610;51.588;7.002;2024-03-23T07:09:25;100174.69;;;11.28;66.53
78337;BME280;67610;51.588;7.002;2024-03-23T07:11:54;100175.66;;;11.35;67.47
78337;BME280;67610;51.588;7.002;2024-03-23T07:14:19;100181.00;;;11.81;66.36
78337;BME280;67610;51.588;7.002;2024-03-23T07:16:45;100173.31;;;12.03;65.77
78337;BME280;67610;51.588;7.002;2024-03-23T07:19:10;100170.22;;;12.30;65.37
78337;BME280;67610;51.588;7.002;2024-03-23T07:21:36;100168.72;;;12.58;64.83
78337;BME280;67610;51.588;7.002;2024-03-23T07:24:03;100176.09;;;12.63;62.15
78337;BME280;67610;51.588;7.002;2024-03-23T07:26:31;100177.50;;;12.73;63.57
78337;BME280;67610;51.588;7.002;2024-03-23T07:28:57;100172.31;;;13.02;62.58
78337;BME280;67610;51.588;7.002;2024-03-23T07:31:22;100177.25;;;13.05;60.52
78337;BME280;67610;51.588;7.002;2024-03-23T07:33:48;100175.59;;;13.27;61.10
78337;BME280;67610;51.588;7.002;2024-03-23T07:36:14;100176.78;;;13.54;60.01
78337;BME280;67610;51.588;7.002;2024-03-23T07:38:43;100184.53;;;13.55;59.17
78337;BME280;67610;51.588;7.002;2024-03-23T07:41:14;100184.81;;;13.46;56.65
78337;BME280;67610;51.588;7.002;2024-03-23T07:43:40;100178.72;;;13.60;60.38
78337;BME280;67610;51.588;7.002;2024-03-23T07:46:06;100180.88;;;14.00;58.82
78337;BME280;67610;51.588;7.002;2024-03-23T07:48:32;100186.91;;;13.94;56.11
78337;BME280;67610;51.588;7.002;2024-03-23T07:53:29;100184.25;;;13.94;57.35
78337;BME280;67610;51.588;7.002;2024-03-23T07:55:58;100177.63;;;14.34;56.32
78337;BME280;67610;51.588;7.002;2024-03-23T07:58:24;100179.63;;;14.67;54.35
78337;BME280;67610;51.588;7.002;2024-03-23T08:00:50;100168.59;;;14.85;54.86
78337;BME280;67610;51.588;7.002;2024-03-23T08:03:15;100173.50;;;15.09;53.17
78337;BME280;67610;51.588;7.002;2024-03-23T08:05:41;100175.41;;;14.73;53.35
78337;BME280;67610;51.588;7.002;2024-03-23T08:08:06;100185.66;;;14.83;53.44
78337;BME280;67610;51.588;7.002;2024-03-23T08:10:32;100178.28;;;14.78;52.02
78337;BME280;67610;51.588;7.002;2024-03-23T08:12:57;100188.41;;;14.89;52.25
78337;BME280;67610;51.588;7.002;2024-03-23T08:15:23;100172.34;;;15.18;52.63
78337;BME280;67610;51.588;7.002;2024-03-23T08:17:49;100172.78;;;15.50;51.51
78337;BME280;67610;51.588;7.002;2024-03-23T08:20:14;100179.94;;;15.90;50.06
78337;BME280;67610;51.588;7.002;2024-03-23T08:22:40;100187.94;;;15.62;50.08
78337;BME280;67610;51.588;7.002;2024-03-23T08:25:06;100180.00;;;15.34;50.47
78337;BME280;67610;51.588;7.002;2024-03-23T08:27:31;100181.97;;;15.26;50.63
78337;BME280;67610;51.588;7.002;2024-03-23T08:29:56;100178.44;;;14.91;49.82
78337;BME280;67610;51.588;7.002;2024-03-23T08:32:22;100173.06;;;14.28;51.34
78337;BME280;67610;51.588;7.002;2024-03-23T08:34:47;100177.19;;;14.16;52.14
78337;BME280;67610;51.588;7.002;2024-03-23T08:37:13;100181.06;;;13.84;52.35
78337;BME280;67610;51.588;7.002;2024-03-23T08:39:38;100177.53;;;13.77;52.57
78337;BME280;67610;51.588;7.002;2024-03-23T08:42:04;100167.06;;;13.69;52.23
78337;BME280;67610;51.588;7.002;2024-03-23T08:44:29;100172.59;;;13.45;52.39
78337;BME280;67610;51.588;7.002;2024-03-23T08:46:58;100182.16;;;13.31;52.96
78337;BME280;67610;51.588;7.002;2024-03-23T08:49:24;100181.97;;;13.32;52.93
78337;BME280;67610;51.588;7.002;2024-03-23T08:51:49;100173.13;;;13.84;52.21
78337;BME280;67610;51.588;7.002;2024-03-23T08:54:14;100163.97;;;14.16;51.74
78337;BME280;67610;51.588;7.002;2024-03-23T08:56:40;100161.34;;;14.51;50.04
78337;BME280;67610;51.588;7.002;2024-03-23T08:59:05;100164.75;;;14.88;49.99
78337;BME280;67610;51.588;7.002;2024-03-23T09:01:36;100162.50;;;15.40;48.87
78337;BME280;67610;51.588;7.002;2024-03-23T09:04:14;100164.75;;;15.43;49.21
78337;BME280;67610;51.588;7.002;2024-03-23T09:06:42;100175.84;;;14.77;46.13
78337;BME280;67610;51.588;7.002;2024-03-23T09:09:07;100158.03;;;14.14;48.26
78337;BME280;67610;51.588;7.002;2024-03-23T09:11:33;100170.56;;;14.05;47.83
78337;BME280;67610;51.588;7.002;2024-03-23T09:13:58;100167.22;;;14.47;47.87
78337;BME280;67610;51.588;7.002;2024-03-23T09:16:23;100161.78;;;14.97;47.92
78337;BME280;67610;51.588;7.002;2024-03-23T09:18:49;100172.47;;;15.38;46.52
78337;BME280;67610;51.588;7.002;2024-03-23T09:21:14;100171.47;;;15.39;46.60
78337;BME280;67610;51.588;7.002;2024-03-23T09:23:42;100171.41;;;15.32;45.55
78337;BME280;67610;51.588;7.002;2024-03-23T09:26:08;100177.34;;;15.34;45.25
78337;BME280;67610;51.588;7.002;2024-03-23T09:28:33;100172.63;;;15.30;45.85
78337;BME280;67610;51.588;7.002;2024-03-23T09:31:05;100169.69;;;15.18;45.33
78337;BME280;67610;51.588;7.002;2024-03-23T09:33:32;100174.19;;;15.46;45.08
78337;BME280;67610;51.588;7.002;2024-03-23T09:35:58;100163.34;;;15.19;43.26
78337;BME280;67610;51.588;7.002;2024-03-23T09:38:27;100175.41;;;14.52;45.21
78337;BME280;67610;51.588;7.002;2024-03-23T09:40:57;100181.19;;;14.62;45.00
78337;BME280;67610;51.588;7.002;2024-03-23T09:43:22;100182.03;;;14.62;44.45
78337;BME280;67610;51.588;7.002;2024-03-23T09:45:49;100177.09;;;14.38;43.60
78337;BME280;67610;51.588;7.002;2024-03-23T09:48:15;100185.66;;;14.40;44.81
78337;BME280;67610;51.588;7.002;2024-03-23T09:50:42;100177.03;;;14.95;43.11
78337;BME280;67610;51.588;7.002;2024-03-23T09:53:09;100165.47;;;15.52;42.95
78337;BME280;67610;51.588;7.002;2024-03-23T09:55:35;100170.22;;;15.63;41.97
78337;BME280;67610;51.588;7.002;2024-03-23T09:58:01;100179.94;;;15.49;43.28
78337;BME280;67610;51.588;7.002;2024-03-23T10:00:27;100162.84;;;15.58;42.47
78337;BME280;67610;51.588;7.002;2024-03-23T10:02:55;100158.25;;;15.18;43.00
78337;BME280;67610;51.588;7.002;2024-03-23T10:05:21;100156.06;;;15.90;42.95
78337;BME280;67610;51.588;7.002;2024-03-23T10:07:50;100146.72;;;16.54;40.99
78337;BME280;67610;51.588;7.002;2024-03-23T10:10:16;100140.06;;;16.18;41.17
78337;BME280;67610;51.588;7.002;2024-03-23T10:12:46;100142.09;;;15.40;41.09
78337;BME280;67610;51.588;7.002;2024-03-23T10:15:23;100138.66;;;15.40;42.67
78337;BME280;67610;51.588;7.002;2024-03-23T10:17:49;100134.25;;;15.88;42.06
78337;BME280;67610;51.588;7.002;2024-03-23T10:20:22;100136.88;;;16.42;41.66
78337;BME280;67610;51.588;7.002;2024-03-23T10:22:48;100129.78;;;16.55;41.05
78337;BME280;67610;51.588;7.002;2024-03-23T10:25:17;100138.53;;;16.56;39.97
78337;BME280;67610;51.588;7.002;2024-03-23T10:27:43;100136.09;;;17.00;40.16
78337;BME280;67610;51.588;7.002;2024-03-23T10:30:10;100139.53;;;17.40;39.82
78337;BME280;67610;51.588;7.002;2024-03-23T10:32:36;100137.25;;;17.70;38.87
78337;BME280;67610;51.588;7.002;2024-03-23T10:35:15;100135.25;;;18.09;37.67
78337;BME280;67610;51.588;7.002;2024-03-23T10:37:45;100137.03;;;18.15;35.66
78337;BME280;67610;51.588;7.002;2024-03-23T10:40:12;100139.22;;;18.32;37.11
78337;BME280;67610;51.588;7.002;2024-03-23T10:42:38;100133.28;;;18.30;36.34
78337;BME280;67610;51.588;7.002;2024-03-23T10:45:04;100140.75;;;18.14;36.73
78337;BME280;67610;51.588;7.002;2024-03-23T10:47:31;100164.44;;;17.72;38.83
78337;BME280;67610;51.588;7.002;2024-03-23T10:49:57;100175.16;;;17.06;40.73
78337;BME280;67610;51.588;7.002;2024-03-23T10:52:22;100175.19;;;16.33;42.81
78337;BME280;67610;51.588;7.002;2024-03-23T10:54:51;100169.19;;;15.36;44.29
78337;BME280;67610;51.588;7.002;2024-03-23T10:57:21;100188.88;;;14.78;46.35
78337;BME280;67610;51.588;7.002;2024-03-23T10:59:48;100193.59;;;14.26;46.35
78337;BME280;67610;51.588;7.002;2024-03-23T11:02:21;100207.03;;;13.51;47.32
78337;BME280;67610;51.588;7.002;2024-03-23T11:04:47;100207.56;;;12.41;49.05
78337;BME280;67610;51.588;7.002;2024-03-23T11:07:32;100189.78;;;12.05;50.76
78337;BME280;67610;51.588;7.002;2024-03-23T11:09:59;100179.00;;;11.83;51.86
78337;BME280;67610;51.588;7.002;2024-03-23T11:12:29;100179.97;;;11.90;52.62
78337;BME280;67610;51.588;7.002;2024-03-23T11:15:05;100171.50;;;12.34;52.94
78337;BME280;67610;51.588;7.002;2024-03-23T11:17:31;100178.22;;;12.67;53.35
78337;BME280;67610;51.588;7.002;2024-03-23T11:20:03;100174.72;;;12.89;53.64
78337;BME280;67610;51.588;7.002;2024-03-23T11:22:43;100157.06;;;13.12;53.48
78337;BME280;67610;51.588;7.002;2024-03-23T11:25:25;100160.34;;;13.14;54.36
78337;BME280;67610;51.588;7.002;2024-03-23T11:27:52;100161.28;;;13.21;54.20
78337;BME280;67610;51.588;7.002;2024-03-23T11:30:19;100153.00;;;13.24;54.16
78337;BME280;67610;51.588;7.002;2024-03-23T11:32:48;100152.38;;;13.52;53.44
78337;BME280;67610;51.588;7.002;2024-03-23T11:35:33;100162.41;;;13.71;54.05
78337;BME280;67610;51.588;7.002;2024-03-23T11:40:44;100158.19;;;13.76;51.90
78337;BME280;67610;51.588;7.002;2024-03-23T11:43:12;100155.66;;;13.68;52.96
78337;BME280;67610;51.588;7.002;2024-03-23T11:45:48;100156.91;;;13.72;50.79
78337;BME280;67610;51.588;7.002;2024-03-23T11:48:17;100151.75;;;13.64;51.01
78337;BME280;67610;51.588;7.002;2024-03-23T11:50:50;100147.25;;;13.65;50.94
78337;BME280;67610;51.588;7.002;2024-03-23T11:53:24;100141.53;;;13.47;51.00
78337;BME280;67610;51.588;7.002;2024-03-23T11:58:16;100159.34;;;12.93;50.65
78337;BME280;67610;51.588;7.002;2024-03-23T12:00:43;100153.00;;;12.65;52.45
78337;BME280;67610;51.588;7.002;2024-03-23T12:03:14;100133.22;;;12.38;54.52
78337;BME280;67610;51.588;7.002;2024-03-23T12:05:39;100137.78;;;12.21;56.01
78337;BME280;67610;51.588;7.002;2024-03-23T12:10:48;100123.28;;;12.25;54.93
78337;BME280;67610;51.588;7.002;2024-03-23T12:13:18;100119.94;;;12.01;55.00
78337;BME280;67610;51.588;7.002;2024-03-23T12:15:44;100142.13;;;11.75;55.14
78337;BME280;67610;51.588;7.002;2024-03-23T12:18:10;100132.47;;;11.60;55.67
78337;BME280;67610;51.588;7.002;2024-03-23T12:20:36;100124.41;;;11.53;56.31
78337;BME280;67610;51.588;7.002;2024-03-23T12:23:10;100133.94;;;11.62;56.45
78337;BME280;67610;51.588;7.002;2024-03-23T12:25:37;100120.75;;;11.70;56.91
78337;BME280;67610;51.588;7.002;2024-03-23T12:28:03;100124.41;;;11.69;56.62
78337;BME280;67610;51.588;7.002;2024-03-23T12:30:30;100114.44;;;11.79;56.63
78337;BME280;67610;51.588;7.002;2024-03-23T12:32:55;100109.47;;;11.93;56.79
78337;BME280;67610;51.588;7.002;2024-03-23T12:35:20;100108.00;;;12.13;54.10
78337;BME280;67610;51.588;7.002;2024-03-23T12:37:46;100122.03;;;12.13;54.40
78337;BME280;67610;51.588;7.002;2024-03-23T12:40:11;100112.75;;;12.17;52.58
78337;BME280;67610;51.588;7.002;2024-03-23T12:42:39;100100.66;;;12.31;52.05
78337;BME280;67610;51.588;7.002;2024-03-23T12:45:05;100112.88;;;12.24;51.29
78337;BME280;67610;51.588;7.002;2024-03-23T12:47:30;100104.66;;;12.19;49.61
78337;BME280;67610;51.588;7.002;2024-03-23T12:49:56;100105.16;;;12.22;49.38
78337;BME280;67610;51.588;7.002;2024-03-23T12:52:21;100117.47;;;12.30;49.68
78337;BME280;67610;51.588;7.002;2024-03-23T12:54:49;100116.66;;;12.29;48.34
78337;BME280;67610;51.588;7.002;2024-03-23T12:57:14;100108.00;;;12.13;47.22
78337;BME280;67610;51.588;7.002;2024-03-23T12:59:39;100117.69;;;11.98;48.33
78337;BME280;67610;51.588;7.002;2024-03-23T13:02:05;100119.72;;;11.79;48.53
78337;BME280;67610;51.588;7.002;2024-03-23T13:04:31;100117.16;;;11.55;49.48
78337;BME280;67610;51.588;7.002;2024-03-23T13:06:56;100132.47;;;11.52;50.36
78337;BME280;67610;51.588;7.002;2024-03-23T13:09:22;100132.38;;;11.29;52.03
78337;BME280;67610;51.588;7.002;2024-03-23T13:11:47;100137.00;;;11.27;52.57
78337;BME280;67610;51.588;7.002;2024-03-23T13:14:13;100136.34;;;11.33;52.88
78337;BME280;67610;51.588;7.002;2024-03-23T13:16:41;100144.38;;;11.32;53.65
78337;BME280;67610;51.588;7.002;2024-03-23T13:19:07;100129.94;;;11.19;54.51
78337;BME280;67610;51.588;7.002;2024-03-23T13:21:32;100144.25;;;11.33;56.40
78337;BME280;67610;51.588;7.002;2024-03-23T13:23:57;100135.38;;;11.26;56.59
78337;BME280;67610;51.588;7.002;2024-03-23T13:26:23;100144.25;;;11.17;56.02
78337;BME280;67610;51.588;7.002;2024-03-23T13:28:48;100126.50;;;11.11;56.69
78337;BME280;67610;51.588;7.002;2024-03-23T13:31:13;100126.84;;;11.00;56.67
78337;BME280;67610;51.588;7.002;2024-03-23T13:33:39;100131.97;;;10.93;56.29
78337;BME280;67610;51.588;7.002;2024-03-23T13:36:05;100144.63;;;10.82;56.85
78337;BME280;67610;51.588;7.002;2024-03-23T13:38:30;100147.09;;;10.59;57.58
78337;BME280;67610;51.588;7.002;2024-03-23T13:40:57;100143.94;;;10.56;57.17
78337;BME280;67610;51.588;7.002;2024-03-23T13:43:24;100139.00;;;10.52;57.39
78337;BME280;67610;51.588;7.002;2024-03-23T13:45:54;100139.84;;;10.69;57.36
78337;BME280;67610;51.588;7.002;2024-03-23T13:48:24;100138.72;;;10.80;57.58
78337;BME280;67610;51.588;7.002;2024-03-23T13:51:03;100138.69;;;10.88;56.22
78337;BME280;67610;51.588;7.002;2024-03-23T13:53:29;100142.97;;;10.89;56.19
78337;BME280;67610;51.588;7.002;2024-03-23T13:55:55;100130.81;;;10.88;56.16